F/V Jeremi Simon — FHAF — position and weather

sailwx.info

Track history (hours):
 
Tides and Currents Weather Stations Pressure Air Temp Water Temp Dewpoint Dewpoint Depression Visibility Wind Speed Wind Dir Waves Ship Positions

F/V Jeremi Simon

Last reported at 2017-Mar-27 09:07 UTC. Time now 2017-Mar-28 08:27 UTC.
Position N 45°21' W 001°25'.

Length 20 m.

Type: Other ship. MMSI: 227415000.

Date/timePositionNaut miles runAvg speedWind from/ knotsBaromVisibWave heightAir tempDewpointWater temp
2017-Mar-27 09:07N 45°21' W 001°25'52 2.0
2017-Mar-26 07:33N 46°10' W 001°49'10 9.5
2017-Mar-26 06:33N 46°19' W 001°52'10 9.6
2017-Mar-26 05:33N 46°29' W 001°54'10 9.8
2017-Mar-26 04:33N 46°38' W 001°57'  
2017-Mar-23 22:33N 46°42' W 001°56'0 0.5
2017-Mar-23 21:33N 46°42' W 001°57'1110.7
2017-Mar-23 20:33N 46°31' W 001°55'1110.7
2017-Mar-23 19:33N 46°21' W 001°51'  
2017-Mar-21 14:33N 46°19' W 002°04'1010.2
2017-Mar-21 13:33N 46°29' W 002°01'1010.3
2017-Mar-21 12:33N 46°39' W 001°58'3 2.6
2017-Mar-21 11:33N 46°42' W 001°56'2 2.0
2017-Mar-21 10:33N 46°40' W 001°58'10 9.9
2017-Mar-21 09:33N 46°30' W 002°01'10 9.5
2017-Mar-21 08:32N 46°21' W 002°04'  
Track history (hours):
 
Tides and Currents Weather Stations Pressure Air Temp Water Temp Dewpoint Dewpoint Depression Visibility Wind Speed Wind Dir Waves Ship Positions

F/V Jeremi Simon

Last reported at 2017-Mar-27 09:07 UTC. Time now 2017-Mar-28 08:27 UTC.
Position N 45°21' W 001°25'.

Length 20 m.

Type: Other ship. MMSI: 227415000.

Date/timePositionNaut miles runAvg speedWind from/ knotsBaromVisibWave heightAir tempDewpointWater temp
2017-Mar-27 09:07N 45°21' W 001°25'52 2.0
2017-Mar-26 07:33N 46°10' W 001°49'10 9.5
2017-Mar-26 06:33N 46°19' W 001°52'10 9.6
2017-Mar-26 05:33N 46°29' W 001°54'10 9.8
2017-Mar-26 04:33N 46°38' W 001°57'  
2017-Mar-23 22:33N 46°42' W 001°56'0 0.5
2017-Mar-23 21:33N 46°42' W 001°57'1110.7
2017-Mar-23 20:33N 46°31' W 001°55'1110.7
2017-Mar-23 19:33N 46°21' W 001°51'  
2017-Mar-21 14:33N 46°19' W 002°04'1010.2
2017-Mar-21 13:33N 46°29' W 002°01'1010.3
2017-Mar-21 12:33N 46°39' W 001°58'3 2.6
2017-Mar-21 11:33N 46°42' W 001°56'2 2.0
2017-Mar-21 10:33N 46°40' W 001°58'10 9.9
2017-Mar-21 09:33N 46°30' W 002°01'10 9.5
2017-Mar-21 08:32N 46°21' W 002°04'  

Dump ship's entire track history